createdAt,value
2022-11-15T00:00:02.114Z,48.21
2022-11-15T00:10:04.131Z,48.13
2022-11-15T00:20:05.863Z,48.12
2022-11-15T00:30:07.476Z,48.10
2022-11-15T00:40:10.220Z,48.04
2022-11-15T00:50:14.993Z,47.89
2022-11-15T01:00:17.176Z,47.94
2022-11-15T01:10:18.569Z,47.95
2022-11-15T01:20:19.947Z,47.83
2022-11-15T01:30:21.323Z,47.85
2022-11-15T01:40:22.700Z,47.94
2022-11-15T01:50:30.055Z,47.90
2022-11-15T02:00:31.672Z,47.95
2022-11-15T02:10:33.123Z,47.79
2022-11-15T02:20:47.684Z,47.79
2022-11-15T02:30:50.912Z,47.85
2022-11-15T02:41:06.060Z,47.84
2022-11-15T02:51:07.437Z,47.76
2022-11-15T03:01:47.692Z,47.97
2022-11-15T03:11:50.420Z,48.01
2022-11-15T03:21:51.818Z,47.78
2022-11-15T03:31:56.610Z,47.96
2022-11-15T03:42:02.207Z,47.90
2022-11-15T03:52:04.740Z,47.97
2022-11-15T04:02:06.298Z,47.88
2022-11-15T04:12:07.687Z,47.90
2022-11-15T04:22:27.620Z,47.71
2022-11-15T04:32:29.093Z,48.12
2022-11-15T04:42:30.462Z,48.00
2022-11-15T04:52:32.008Z,48.04
2022-11-15T05:02:51.963Z,48.16
2022-11-15T05:12:53.405Z,47.78
2022-11-15T05:22:56.320Z,47.65
2022-11-15T05:32:57.690Z,47.29
2022-11-15T05:42:59.091Z,46.99
2022-11-15T05:53:04.812Z,46.75
2022-11-15T06:03:06.771Z,46.45
2022-11-15T06:13:08.720Z,46.23
2022-11-15T06:23:10.293Z,46.10
2022-11-15T06:33:11.811Z,45.77
2022-11-15T06:43:13.339Z,45.75
2022-11-15T06:53:14.722Z,45.54
2022-11-15T07:03:19.042Z,45.46
2022-11-15T07:13:20.591Z,45.37
2022-11-15T07:23:22.133Z,45.31
2022-11-15T07:33:23.530Z,45.00
2022-11-15T07:43:25.135Z,44.91
2022-11-15T07:53:26.516Z,44.71
2022-11-15T08:03:27.894Z,44.12
2022-11-15T08:13:30.011Z,43.90
2022-11-15T08:23:33.054Z,44.14
2022-11-15T08:33:36.383Z,43.99
2022-11-15T08:43:37.837Z,43.95
2022-11-15T08:53:39.198Z,43.13
2022-11-15T09:03:41.224Z,42.99
2022-11-15T09:13:42.629Z,42.77
2022-11-15T09:23:44.191Z,42.81
2022-11-15T09:33:45.878Z,42.74
2022-11-15T09:44:13.339Z,41.82
2022-11-15T09:54:52.715Z,41.34
2022-11-15T10:04:55.144Z,41.42
2022-11-15T10:15:04.031Z,41.05
2022-11-15T10:25:13.794Z,41.14
2022-11-15T10:35:28.542Z,40.82
2022-11-15T10:45:31.277Z,41.06
2022-11-15T10:55:32.864Z,40.70
2022-11-15T11:05:39.880Z,39.93
2022-11-15T11:15:43.901Z,39.89
2022-11-15T11:25:51.268Z,40.06
2022-11-15T11:36:26.312Z,39.94
2022-11-15T11:46:42.856Z,41.31
2022-11-15T11:56:45.349Z,39.69
2022-11-15T12:07:00.386Z,39.91
2022-11-15T12:17:01.836Z,40.61
2022-11-15T12:27:25.129Z,41.90
2022-11-15T12:37:36.639Z,41.72
2022-11-15T12:47:38.195Z,39.78
2022-11-15T12:57:40.439Z,40.78
2022-11-15T13:07:41.732Z,41.63
2022-11-15T13:17:50.097Z,41.83
2022-11-15T13:27:51.718Z,42.44
2022-11-15T13:37:53.726Z,42.85
2022-11-15T13:47:57.109Z,42.93
2022-11-15T13:58:00.799Z,43.27
2022-11-15T14:08:13.617Z,43.31
2022-11-15T14:18:42.583Z,43.87
2022-11-15T14:28:44.002Z,43.98
2022-11-15T14:38:45.691Z,44.64
2022-11-15T14:48:47.097Z,44.90
2022-11-15T14:58:48.609Z,44.99
2022-11-15T15:08:51.449Z,45.09
2022-11-15T15:18:53.021Z,45.72
2022-11-15T15:28:54.641Z,45.73
2022-11-15T15:38:56.038Z,45.53
2022-11-15T15:48:57.420Z,46.09
2022-11-15T15:58:59.010Z,46.65
2022-11-15T16:09:14.661Z,46.51
2022-11-15T16:19:17.491Z,46.90
2022-11-15T16:29:18.875Z,47.04
2022-11-15T16:39:20.442Z,47.22
2022-11-15T16:49:22.062Z,47.25
2022-11-15T16:59:23.489Z,47.51
2022-11-15T17:09:24.997Z,47.53
2022-11-15T17:19:26.408Z,47.70
2022-11-15T17:29:27.866Z,47.88
2022-11-15T17:39:29.236Z,48.04
2022-11-15T17:49:30.784Z,48.25
2022-11-15T17:59:32.319Z,48.58
2022-11-15T18:09:33.995Z,49.56
2022-11-15T18:19:36.483Z,50.29
2022-11-15T18:29:38.323Z,50.86
2022-11-15T18:39:39.877Z,51.83
2022-11-15T18:49:41.344Z,52.02
2022-11-15T18:59:42.717Z,52.41
2022-11-15T19:09:44.196Z,53.15
2022-11-15T19:19:45.578Z,54.39
2022-11-15T19:29:46.976Z,54.59
2022-11-15T19:39:48.472Z,54.98
2022-11-15T19:49:49.905Z,54.88
2022-11-15T19:59:51.383Z,54.80
2022-11-15T20:09:53.725Z,55.56
2022-11-15T20:19:55.284Z,55.76
2022-11-15T20:29:56.689Z,56.24
2022-11-15T20:39:58.235Z,56.48
2022-11-15T20:50:14.867Z,55.67
2022-11-15T21:00:24.824Z,56.06
2022-11-15T21:10:44.717Z,55.97
2022-11-15T21:20:46.095Z,56.12
2022-11-15T21:30:55.544Z,56.24
2022-11-15T21:40:56.948Z,56.57
2022-11-15T21:51:05.595Z,56.54
2022-11-15T22:01:30.935Z,56.51
2022-11-15T22:11:32.804Z,56.74
2022-11-15T22:21:34.406Z,56.85
2022-11-15T22:31:35.872Z,57.31
2022-11-15T22:41:37.455Z,57.25
2022-11-15T22:51:40.348Z,57.58
2022-11-15T23:01:41.944Z,57.71
2022-11-15T23:12:02.107Z,57.47
2022-11-15T23:22:21.979Z,57.73
2022-11-15T23:32:41.819Z,58.01
2022-11-15T23:42:43.345Z,58.04
2022-11-15T23:52:44.786Z,57.56
